createdAt,value
2022-11-17T00:02:20.019Z,1.00
2022-11-17T00:04:47.939Z,1.25
2022-11-17T00:07:15.894Z,1.10
2022-11-17T00:09:43.702Z,0.90
2022-11-17T00:12:32.802Z,2.10
2022-11-17T00:15:01.121Z,1.40
2022-11-17T00:17:30.421Z,1.50
2022-11-17T00:20:15.882Z,0.90
2022-11-17T00:22:43.738Z,1.30
2022-11-17T00:25:11.621Z,1.08
2022-11-17T00:27:39.518Z,1.00
2022-11-17T00:30:08.773Z,1.10
2022-11-17T00:32:55.401Z,1.10
2022-11-17T00:35:23.290Z,2.03
2022-11-17T00:38:04.977Z,1.30
2022-11-17T00:40:32.829Z,1.50
2022-11-17T00:43:00.679Z,1.42
2022-11-17T00:45:28.523Z,1.30
2022-11-17T00:47:57.825Z,1.38
2022-11-17T00:50:25.751Z,1.27
2022-11-17T00:52:53.753Z,1.20
2022-11-17T00:55:21.639Z,1.42
2022-11-17T00:57:49.554Z,1.10
2022-11-17T01:00:17.670Z,1.30
2022-11-17T01:02:45.479Z,1.45
2022-11-17T01:05:14.879Z,1.00
2022-11-17T01:07:42.744Z,0.98
2022-11-17T01:10:11.056Z,1.13
2022-11-17T01:12:38.967Z,1.35
2022-11-17T01:15:07.771Z,1.20
2022-11-17T01:17:35.918Z,1.30
2022-11-17T01:20:03.984Z,0.85
2022-11-17T01:22:33.261Z,1.20
2022-11-17T01:25:01.129Z,1.00
2022-11-17T01:27:28.970Z,0.95
2022-11-17T01:29:56.883Z,0.95
2022-11-17T01:32:24.698Z,1.10
2022-11-17T01:34:52.552Z,0.75
2022-11-17T01:37:20.471Z,0.90
2022-11-17T01:39:50.772Z,1.13
2022-11-17T01:42:20.870Z,0.95
2022-11-17T01:45:00.317Z,1.05
2022-11-17T01:47:41.278Z,1.00
2022-11-17T01:50:23.486Z,0.80
2022-11-17T01:52:52.583Z,1.23
2022-11-17T01:55:23.442Z,1.05
2022-11-17T01:57:53.588Z,1.08
2022-11-17T02:00:21.567Z,1.10
2022-11-17T02:02:49.885Z,0.82
2022-11-17T02:05:24.424Z,1.08
2022-11-17T02:07:53.462Z,0.77
2022-11-17T02:10:23.069Z,0.80
2022-11-17T02:12:53.262Z,0.93
2022-11-17T02:15:21.950Z,0.90
2022-11-17T02:17:50.586Z,0.98
2022-11-17T02:20:22.785Z,0.90
2022-11-17T02:23:22.985Z,0.98
2022-11-17T02:26:22.883Z,0.77
2022-11-17T02:28:57.747Z,0.77
2022-11-17T02:31:33.246Z,0.90
2022-11-17T02:34:07.793Z,1.35
2022-11-17T02:36:40.232Z,0.75
2022-11-17T02:39:12.970Z,1.90
2022-11-17T02:41:46.787Z,1.27
2022-11-17T02:44:17.815Z,0.70
2022-11-17T02:46:47.003Z,0.80
2022-11-17T02:49:19.801Z,1.00
2022-11-17T02:51:49.611Z,0.90
2022-11-17T02:54:17.956Z,1.00
2022-11-17T02:56:45.767Z,0.70
2022-11-17T02:59:16.741Z,0.90
2022-11-17T03:02:15.455Z,0.60
2022-11-17T03:04:50.680Z,0.73
2022-11-17T03:07:31.447Z,0.70
2022-11-17T03:10:07.549Z,0.83
2022-11-17T03:12:43.355Z,0.65
2022-11-17T03:15:20.803Z,0.80
2022-11-17T03:17:53.777Z,0.87
2022-11-17T03:20:24.619Z,0.60
2022-11-17T03:22:57.621Z,0.60
2022-11-17T03:25:27.371Z,0.50
2022-11-17T03:27:58.852Z,0.80
2022-11-17T03:30:29.950Z,0.80
2022-11-17T03:33:06.399Z,0.40
2022-11-17T03:35:37.072Z,0.70
2022-11-17T03:38:08.896Z,0.50
2022-11-17T03:40:37.353Z,0.67
2022-11-17T03:43:07.450Z,0.70
2022-11-17T03:45:39.730Z,0.50
2022-11-17T03:48:14.600Z,0.80
2022-11-17T03:50:45.119Z,0.67
2022-11-17T03:53:13.082Z,1.10
2022-11-17T03:55:48.077Z,0.57
2022-11-17T03:58:18.865Z,0.40
2022-11-17T04:00:50.599Z,0.70
2022-11-17T04:03:18.525Z,0.50
2022-11-17T04:05:46.745Z,0.40
2022-11-17T04:08:14.669Z,0.50
2022-11-17T04:10:56.422Z,0.60
2022-11-17T04:13:41.791Z,0.50
2022-11-17T04:16:11.118Z,0.60
2022-11-17T04:18:38.969Z,0.50
2022-11-17T04:21:07.112Z,0.47
2022-11-17T04:23:35.208Z,0.50
2022-11-17T04:26:20.880Z,0.50
2022-11-17T04:28:50.474Z,0.50
2022-11-17T04:31:21.585Z,0.60
2022-11-17T04:33:50.649Z,0.60
2022-11-17T04:36:20.333Z,0.40
2022-11-17T04:38:50.052Z,0.40
2022-11-17T04:41:36.633Z,0.50
2022-11-17T04:44:05.543Z,0.50
2022-11-17T04:46:35.996Z,0.80
2022-11-17T04:49:04.450Z,0.50
2022-11-17T04:51:32.833Z,0.50
2022-11-17T04:54:01.747Z,0.50
2022-11-17T04:56:30.019Z,0.50
2022-11-17T04:58:58.408Z,0.40
2022-11-17T05:01:27.989Z,0.50
2022-11-17T05:03:58.700Z,0.53
2022-11-17T05:06:28.236Z,0.60
2022-11-17T05:08:57.193Z,0.47
2022-11-17T05:11:43.428Z,0.70
2022-11-17T05:14:11.788Z,0.50
2022-11-17T05:16:57.720Z,0.80
2022-11-17T05:19:28.105Z,0.70
2022-11-17T05:21:56.340Z,0.30
2022-11-17T05:24:23.329Z,0.40
2022-11-17T05:26:51.615Z,0.30
2022-11-17T05:29:21.737Z,0.40
2022-11-17T05:31:50.035Z,0.70
2022-11-17T05:34:18.448Z,0.53
2022-11-17T05:36:47.722Z,0.93
2022-11-17T05:39:16.323Z,0.50
2022-11-17T05:41:44.224Z,0.70
2022-11-17T05:44:12.077Z,0.73
2022-11-17T05:46:39.873Z,0.70
2022-11-17T05:49:07.654Z,0.80
2022-11-17T05:51:36.275Z,0.90
2022-11-17T05:54:05.621Z,0.90
2022-11-17T05:56:37.160Z,0.63
2022-11-17T05:59:15.538Z,0.80
2022-11-17T06:01:46.670Z,1.00
2022-11-17T06:04:15.743Z,1.10
2022-11-17T06:06:43.698Z,1.00
2022-11-17T06:09:13.158Z,1.10
2022-11-17T06:11:41.048Z,1.13
2022-11-17T06:14:08.909Z,0.93
2022-11-17T06:16:41.840Z,0.93
2022-11-17T06:19:12.736Z,1.20
2022-11-17T06:22:09.999Z,1.10
2022-11-17T06:24:30.114Z,1.52
2022-11-17T06:26:57.974Z,1.17
2022-11-17T06:29:26.064Z,1.13
2022-11-17T06:31:55.100Z,1.13
2022-11-17T06:34:23.047Z,1.20
2022-11-17T06:36:50.964Z,1.20
2022-11-17T06:39:18.805Z,0.97
2022-11-17T06:41:48.092Z,0.82
2022-11-17T06:44:16.010Z,1.27
2022-11-17T06:46:48.810Z,1.20
2022-11-17T06:49:17.421Z,1.30
2022-11-17T06:51:45.756Z,1.27
2022-11-17T06:54:14.876Z,0.97
2022-11-17T06:56:43.702Z,0.90
2022-11-17T06:59:14.291Z,1.00
2022-11-17T07:01:42.534Z,1.17
2022-11-17T07:04:10.547Z,1.20
2022-11-17T07:06:38.685Z,1.53
2022-11-17T07:09:06.630Z,1.30
2022-11-17T07:11:36.263Z,1.47
2022-11-17T07:14:04.313Z,1.03
2022-11-17T07:16:33.611Z,1.38
2022-11-17T07:19:03.730Z,1.60
2022-11-17T07:21:31.858Z,1.57
2022-11-17T07:23:59.944Z,1.63
2022-11-17T07:26:27.857Z,2.00
2022-11-17T07:28:55.745Z,1.00
2022-11-17T07:31:23.753Z,1.00
2022-11-17T07:33:54.347Z,1.07
2022-11-17T07:36:22.269Z,1.20
2022-11-17T07:38:50.205Z,1.10
2022-11-17T07:41:18.227Z,1.20
2022-11-17T07:43:46.189Z,1.10
2022-11-17T07:46:15.901Z,1.33
2022-11-17T07:48:44.601Z,1.27
2022-11-17T07:51:14.178Z,1.20
2022-11-17T07:53:42.160Z,1.30
2022-11-17T07:56:11.496Z,1.80
2022-11-17T07:58:39.970Z,1.60
2022-11-17T08:01:08.536Z,1.80
2022-11-17T08:03:36.553Z,1.93
2022-11-17T08:06:04.960Z,1.23
2022-11-17T08:08:34.816Z,1.13
2022-11-17T08:11:05.157Z,1.40
2022-11-17T08:13:33.092Z,9.27
2022-11-17T08:16:01.164Z,1.40
2022-11-17T08:18:30.174Z,2.30
2022-11-17T08:21:03.352Z,1.07
2022-11-17T08:23:31.239Z,0.90
2022-11-17T08:26:00.712Z,0.80
2022-11-17T08:28:28.669Z,0.83
2022-11-17T08:30:56.883Z,0.60
2022-11-17T08:33:24.773Z,0.70
2022-11-17T08:35:53.104Z,0.50
2022-11-17T08:38:20.963Z,0.63
2022-11-17T08:40:48.843Z,0.45
2022-11-17T08:43:18.150Z,0.60
2022-11-17T08:45:46.007Z,0.40
2022-11-17T08:48:13.877Z,0.50
2022-11-17T08:50:41.817Z,0.60
2022-11-17T08:53:14.227Z,0.57
2022-11-17T08:55:42.520Z,0.50
2022-11-17T08:58:10.602Z,0.50
2022-11-17T09:00:39.945Z,0.33
2022-11-17T09:03:08.692Z,0.43
2022-11-17T09:05:39.842Z,0.60
2022-11-17T09:08:37.852Z,0.73
2022-11-17T09:10:56.078Z,0.60
2022-11-17T09:13:23.983Z,0.87
2022-11-17T09:15:53.265Z,0.32
2022-11-17T09:18:21.120Z,0.60
2022-11-17T09:20:49.022Z,0.43
2022-11-17T09:23:16.920Z,0.52
2022-11-17T09:25:44.758Z,0.50
2022-11-17T09:28:12.732Z,0.65
2022-11-17T09:30:40.553Z,0.60
2022-11-17T09:33:09.813Z,0.50
2022-11-17T09:35:37.913Z,0.70
2022-11-17T09:38:05.809Z,0.40
2022-11-17T09:40:38.029Z,0.75
2022-11-17T09:43:07.857Z,0.50
2022-11-17T09:45:38.755Z,0.70
2022-11-17T09:48:39.674Z,0.63
2022-11-17T09:51:02.966Z,1.90
2022-11-17T09:53:37.875Z,0.68
2022-11-17T09:56:08.852Z,0.63
2022-11-17T09:58:41.658Z,0.73
2022-11-17T10:01:11.984Z,0.60
2022-11-17T10:03:46.180Z,0.75
2022-11-17T10:06:17.311Z,0.50
2022-11-17T10:08:49.739Z,0.40
2022-11-17T10:11:34.103Z,0.60
2022-11-17T10:14:13.581Z,0.88
2022-11-17T10:16:43.746Z,1.05
2022-11-17T10:19:17.979Z,0.85
2022-11-17T10:21:46.276Z,0.90
2022-11-17T10:24:34.215Z,0.80
2022-11-17T10:27:03.262Z,0.52
2022-11-17T10:29:31.288Z,0.75
2022-11-17T10:31:59.829Z,0.77
2022-11-17T10:34:40.656Z,0.73
2022-11-17T10:37:25.535Z,0.63
2022-11-17T10:40:07.952Z,0.70
2022-11-17T10:42:35.802Z,0.70
2022-11-17T10:45:04.173Z,0.90
2022-11-17T10:47:34.648Z,0.65
2022-11-17T10:50:24.882Z,0.80
2022-11-17T10:52:54.203Z,0.80
2022-11-17T10:55:27.813Z,0.45
2022-11-17T10:57:58.513Z,0.90
2022-11-17T11:00:30.086Z,0.70
2022-11-17T11:03:06.698Z,0.50
2022-11-17T11:05:35.953Z,0.63
2022-11-17T11:08:17.358Z,0.80
2022-11-17T11:10:48.497Z,0.65
2022-11-17T11:13:20.989Z,0.95
2022-11-17T11:15:48.914Z,0.50
2022-11-17T11:18:18.143Z,0.70
2022-11-17T11:20:53.254Z,0.52
2022-11-17T11:23:28.070Z,0.50
2022-11-17T11:25:59.760Z,0.47
2022-11-17T11:28:38.091Z,0.80
2022-11-17T11:31:16.238Z,0.80
2022-11-17T11:33:48.853Z,1.08
2022-11-17T11:36:27.783Z,0.73
2022-11-17T11:39:02.105Z,0.60
2022-11-17T11:41:45.543Z,0.63
2022-11-17T11:44:33.686Z,0.88
2022-11-17T11:47:07.313Z,0.80
2022-11-17T11:49:39.728Z,0.47
2022-11-17T11:52:22.618Z,0.90
2022-11-17T11:54:53.643Z,1.15
2022-11-17T11:57:27.147Z,0.80
2022-11-17T12:00:03.569Z,0.93
2022-11-17T12:02:50.149Z,0.85
2022-11-17T12:05:23.072Z,0.70
2022-11-17T12:07:55.621Z,0.70
2022-11-17T12:10:30.026Z,0.80
2022-11-17T12:12:58.409Z,1.10
2022-11-17T12:15:35.300Z,0.68
2022-11-17T12:18:06.271Z,1.33
2022-11-17T12:20:56.951Z,0.70
2022-11-17T12:23:58.371Z,1.00
2022-11-17T12:26:28.223Z,0.75
2022-11-17T12:29:25.634Z,0.80
2022-11-17T12:31:54.600Z,0.65
2022-11-17T12:34:25.111Z,0.80
2022-11-17T12:37:21.747Z,1.20
2022-11-17T12:40:05.798Z,1.00
2022-11-17T12:42:35.266Z,0.70
2022-11-17T12:45:08.330Z,0.93
2022-11-17T12:47:38.465Z,0.85
2022-11-17T12:50:43.237Z,0.70
2022-11-17T12:53:49.693Z,0.50
2022-11-17T12:56:44.609Z,0.80
2022-11-17T12:59:31.766Z,0.80
2022-11-17T13:02:06.701Z,0.80
2022-11-17T13:04:37.281Z,0.50
2022-11-17T13:07:06.807Z,0.70
2022-11-17T13:09:36.428Z,0.63
2022-11-17T13:12:07.440Z,0.55
2022-11-17T13:14:36.540Z,0.88
2022-11-17T13:17:04.754Z,0.60
2022-11-17T13:19:37.885Z,0.60
2022-11-17T13:22:13.750Z,0.60
2022-11-17T13:24:43.859Z,0.47
2022-11-17T13:27:23.216Z,0.50
2022-11-17T13:29:51.494Z,0.60
2022-11-17T13:32:21.449Z,0.35
2022-11-17T13:34:51.274Z,0.22
2022-11-17T13:37:21.529Z,0.45
2022-11-17T13:39:57.101Z,0.40
2022-11-17T13:42:28.632Z,0.40
2022-11-17T13:44:57.747Z,0.50
2022-11-17T13:47:29.459Z,0.40
2022-11-17T13:49:57.294Z,0.40
2022-11-17T13:52:38.004Z,0.45
2022-11-17T13:55:11.619Z,0.68
2022-11-17T13:57:41.007Z,0.50
2022-11-17T14:00:17.998Z,0.60
2022-11-17T14:02:53.218Z,0.52
2022-11-17T14:05:23.897Z,0.70
2022-11-17T14:07:52.988Z,0.40
2022-11-17T14:10:33.046Z,1.25
2022-11-17T14:13:20.290Z,0.80
2022-11-17T14:15:53.773Z,1.73
2022-11-17T14:18:27.231Z,1.02
2022-11-17T14:21:09.926Z,1.80
2022-11-17T14:23:37.933Z,0.93
2022-11-17T14:26:06.129Z,1.58
2022-11-17T14:28:35.352Z,1.65
2022-11-17T14:31:03.218Z,0.88
2022-11-17T14:33:31.086Z,0.70
2022-11-17T14:36:00.264Z,1.60
2022-11-17T14:38:28.580Z,1.73
2022-11-17T14:40:56.541Z,1.65
2022-11-17T14:43:24.468Z,1.60
2022-11-17T14:45:54.041Z,0.75
2022-11-17T14:48:22.357Z,0.98
2022-11-17T14:50:57.196Z,1.08
2022-11-17T14:53:25.575Z,0.75
2022-11-17T14:55:53.692Z,0.50
2022-11-17T14:58:21.476Z,0.85
2022-11-17T15:00:49.643Z,0.65
2022-11-17T15:03:18.926Z,1.00
2022-11-17T15:05:47.154Z,0.90
2022-11-17T15:08:15.275Z,0.60
2022-11-17T15:10:46.820Z,0.60
2022-11-17T15:13:14.687Z,0.80
2022-11-17T15:15:42.580Z,0.85
2022-11-17T15:18:12.087Z,0.90
2022-11-17T15:20:41.344Z,0.90
2022-11-17T15:23:09.248Z,0.57
2022-11-17T15:25:38.809Z,0.75
2022-11-17T15:28:06.743Z,0.75
2022-11-17T15:30:34.642Z,1.08
2022-11-17T15:33:02.882Z,0.60
2022-11-17T15:35:30.719Z,1.00
2022-11-17T15:37:59.997Z,1.00
2022-11-17T15:40:27.871Z,0.80
2022-11-17T15:42:55.817Z,0.60
2022-11-17T15:45:23.648Z,1.02
2022-11-17T15:47:51.514Z,1.95
2022-11-17T15:50:19.604Z,0.80
2022-11-17T15:53:04.469Z,0.93
2022-11-17T15:55:34.681Z,0.98
2022-11-17T15:58:02.518Z,0.70
2022-11-17T16:00:30.408Z,0.75
2022-11-17T16:02:58.876Z,1.10
2022-11-17T16:05:26.880Z,0.93
2022-11-17T16:07:55.726Z,1.00
2022-11-17T16:10:23.618Z,1.25
2022-11-17T16:12:52.984Z,1.38
2022-11-17T16:15:20.979Z,1.30
2022-11-17T16:17:49.307Z,1.30
2022-11-17T16:20:18.500Z,1.08
2022-11-17T16:22:46.423Z,1.58
2022-11-17T16:25:14.538Z,2.45
2022-11-17T16:27:42.330Z,2.58
2022-11-17T16:30:13.058Z,2.38
2022-11-17T16:32:41.305Z,2.00
2022-11-17T16:35:09.357Z,1.60
2022-11-17T16:37:37.723Z,1.83
2022-11-17T16:40:06.308Z,2.17
2022-11-17T16:42:34.200Z,1.60
2022-11-17T16:45:02.067Z,2.00
2022-11-17T16:47:31.299Z,2.25
2022-11-17T16:49:59.669Z,1.40
2022-11-17T16:52:27.705Z,1.70
2022-11-17T16:54:58.135Z,1.65
2022-11-17T16:57:30.094Z,1.75
2022-11-17T16:59:58.000Z,2.42
2022-11-17T17:02:26.045Z,2.13
2022-11-17T17:04:55.359Z,1.38
2022-11-17T17:07:23.353Z,1.98
2022-11-17T17:09:52.445Z,1.90
2022-11-17T17:12:20.341Z,1.67
2022-11-17T17:14:48.231Z,1.50
2022-11-17T17:17:16.042Z,0.82
2022-11-17T17:19:43.905Z,1.65
2022-11-17T17:22:13.180Z,1.25
2022-11-17T17:24:41.150Z,1.63
2022-11-17T17:27:08.996Z,1.30
2022-11-17T17:29:36.871Z,1.40
2022-11-17T17:32:04.954Z,1.90
2022-11-17T17:34:32.834Z,1.55
2022-11-17T17:37:00.742Z,1.65
2022-11-17T17:39:30.036Z,1.90
2022-11-17T17:41:58.119Z,2.92
2022-11-17T17:44:25.999Z,2.67
2022-11-17T17:46:53.861Z,1.70
2022-11-17T17:49:21.737Z,3.13
2022-11-17T17:51:49.611Z,1.45
2022-11-17T17:54:19.143Z,2.22
2022-11-17T17:56:48.716Z,1.60
2022-11-17T17:59:17.137Z,1.88
2022-11-17T18:01:47.701Z,1.38
2022-11-17T18:04:17.088Z,1.35
2022-11-17T18:06:47.661Z,1.20
2022-11-17T18:09:19.001Z,1.35
2022-11-17T18:11:50.069Z,1.30
2022-11-17T18:14:20.546Z,1.25
2022-11-17T18:16:48.546Z,1.38
2022-11-17T18:19:16.871Z,1.15
2022-11-17T18:21:45.020Z,1.50
2022-11-17T18:24:13.131Z,1.50
2022-11-17T18:26:41.659Z,1.30
2022-11-17T18:29:14.828Z,1.40
2022-11-17T18:31:43.391Z,1.10
2022-11-17T18:34:15.911Z,1.42
2022-11-17T18:36:43.912Z,1.10
2022-11-17T18:39:12.106Z,1.20
2022-11-17T18:41:40.009Z,1.35
2022-11-17T18:44:07.903Z,1.77
2022-11-17T18:46:37.023Z,1.55
2022-11-17T18:49:04.882Z,2.00
2022-11-17T18:51:34.152Z,1.98
2022-11-17T18:54:02.746Z,2.37
2022-11-17T18:56:33.768Z,2.13
2022-11-17T18:59:01.749Z,2.00
2022-11-17T19:01:30.734Z,1.57
2022-11-17T19:04:01.496Z,2.25
2022-11-17T19:06:29.452Z,1.58
2022-11-17T19:08:59.616Z,1.80
2022-11-17T19:11:28.461Z,2.15
2022-11-17T19:13:56.333Z,1.70
2022-11-17T19:16:25.730Z,1.90
2022-11-17T19:18:55.723Z,1.77
2022-11-17T19:21:26.469Z,2.20
2022-11-17T19:23:55.847Z,1.50
2022-11-17T19:26:25.295Z,2.10
2022-11-17T19:28:56.635Z,2.10
2022-11-17T19:31:25.010Z,1.70
2022-11-17T19:33:53.141Z,1.70
2022-11-17T19:36:22.174Z,2.20
2022-11-17T19:38:52.383Z,2.17
2022-11-17T19:41:22.255Z,2.20
2022-11-17T19:43:53.459Z,2.57
2022-11-17T19:46:21.985Z,2.40
2022-11-17T19:48:50.011Z,2.00
2022-11-17T19:51:21.155Z,1.87
2022-11-17T19:53:51.625Z,1.70
2022-11-17T19:56:20.072Z,1.57
2022-11-17T19:58:48.267Z,1.50
2022-11-17T20:01:17.144Z,2.10
2022-11-17T20:03:46.211Z,1.40
2022-11-17T20:06:15.746Z,1.53
2022-11-17T20:08:43.832Z,1.77
2022-11-17T20:11:14.365Z,1.17
2022-11-17T20:13:42.574Z,1.60
2022-11-17T20:16:12.912Z,1.30
2022-11-17T20:18:41.656Z,1.73
2022-11-17T20:21:10.121Z,1.37
2022-11-17T20:23:39.287Z,1.53
2022-11-17T20:26:08.068Z,1.43
2022-11-17T20:28:38.007Z,1.80
2022-11-17T20:31:09.945Z,1.67
2022-11-17T20:33:38.132Z,1.48
2022-11-17T20:36:07.020Z,1.67
2022-11-17T20:38:35.880Z,1.60
2022-11-17T20:41:04.330Z,1.50
2022-11-17T20:43:32.614Z,2.60
2022-11-17T20:46:02.470Z,1.60
2022-11-17T20:48:31.557Z,1.30
2022-11-17T20:51:00.004Z,1.63
2022-11-17T20:53:28.101Z,1.70
2022-11-17T20:55:56.458Z,1.80
2022-11-17T20:58:24.684Z,1.87
2022-11-17T21:00:52.806Z,1.47
2022-11-17T21:03:22.462Z,1.57
2022-11-17T21:05:58.361Z,1.93
2022-11-17T21:08:27.821Z,2.03
2022-11-17T21:10:56.514Z,1.80
2022-11-17T21:13:24.465Z,2.00
2022-11-17T21:16:06.499Z,1.80
2022-11-17T21:18:36.382Z,2.27
2022-11-17T21:21:08.803Z,2.23
2022-11-17T21:23:37.258Z,1.63
2022-11-17T21:26:06.178Z,1.80
2022-11-17T21:28:34.221Z,1.70
2022-11-17T21:31:07.768Z,1.70
2022-11-17T21:33:38.094Z,2.00
2022-11-17T21:36:08.079Z,1.93
2022-11-17T21:38:36.024Z,2.20
2022-11-17T21:41:04.456Z,2.43
2022-11-17T21:43:32.561Z,1.50
2022-11-17T21:46:03.897Z,2.10
2022-11-17T21:48:31.885Z,1.90
2022-11-17T21:51:01.214Z,1.90
2022-11-17T21:53:29.841Z,2.20
2022-11-17T21:56:01.640Z,2.30
2022-11-17T21:58:29.585Z,2.30
2022-11-17T22:00:57.829Z,1.50
2022-11-17T22:03:25.835Z,1.73
2022-11-17T22:05:58.019Z,2.10
2022-11-17T22:08:30.248Z,2.37
2022-11-17T22:10:58.070Z,2.10
2022-11-17T22:13:25.837Z,2.38
2022-11-17T22:15:53.885Z,2.40
2022-11-17T22:18:21.770Z,1.80
2022-11-17T22:20:51.867Z,2.03
2022-11-17T22:23:19.861Z,1.70
2022-11-17T22:25:55.801Z,1.90
2022-11-17T22:28:24.691Z,1.60
2022-11-17T22:30:53.578Z,1.73
2022-11-17T22:33:22.077Z,1.80
2022-11-17T22:35:50.245Z,1.50
2022-11-17T22:38:18.431Z,2.33
2022-11-17T22:40:46.296Z,2.20
2022-11-17T22:43:15.802Z,1.90
2022-11-17T22:45:43.906Z,2.27
2022-11-17T22:48:11.897Z,2.10
2022-11-17T22:50:39.950Z,1.80
2022-11-17T22:53:07.844Z,2.07
2022-11-17T22:55:35.818Z,1.73
2022-11-17T22:58:04.009Z,1.60
2022-11-17T23:00:33.325Z,2.20
2022-11-17T23:03:01.216Z,2.63
2022-11-17T23:05:29.268Z,2.30
2022-11-17T23:07:57.161Z,1.50
2022-11-17T23:10:25.415Z,1.50
2022-11-17T23:12:53.377Z,1.20
2022-11-17T23:15:21.342Z,2.03
2022-11-17T23:17:50.842Z,2.50
2022-11-17T23:20:18.842Z,1.70
2022-11-17T23:22:46.827Z,1.90
2022-11-17T23:25:15.108Z,1.60
2022-11-17T23:27:43.027Z,2.27
2022-11-17T23:30:11.827Z,1.90
2022-11-17T23:32:39.734Z,1.67
2022-11-17T23:35:10.189Z,1.60
2022-11-17T23:37:38.137Z,1.27
2022-11-17T23:40:06.875Z,1.50
2022-11-17T23:42:40.141Z,1.00
2022-11-17T23:45:11.877Z,1.60
2022-11-17T23:47:39.921Z,1.37
2022-11-17T23:50:09.920Z,1.30
2022-11-17T23:52:37.758Z,1.40
2022-11-17T23:55:06.105Z,1.23
2022-11-17T23:57:33.941Z,1.23
